sensor_id;sensor_type;location;lat;lon;timestamp;P1;durP1;ratioP1;P2;durP2;ratioP2
12433;SDS011;6281;49.038;8.372;2023-04-30T00:01:37;4.27;;;3.23;;
12433;SDS011;6281;49.038;8.372;2023-04-30T00:04:04;4.87;;;3.27;;
12433;SDS011;6281;49.038;8.372;2023-04-30T00:06:31;4.67;;;3.40;;
12433;SDS011;6281;49.038;8.372;2023-04-30T00:08:58;4.00;;;3.17;;
12433;SDS011;6281;49.038;8.372;2023-04-30T00:11:25;4.63;;;2.50;;
12433;SDS011;6281;49.038;8.372;2023-04-30T00:13:53;6.27;;;3.57;;
12433;SDS011;6281;49.038;8.372;2023-04-30T00:16:21;3.73;;;3.20;;
12433;SDS011;6281;49.038;8.372;2023-04-30T00:18:47;5.17;;;3.00;;
12433;SDS011;6281;49.038;8.372;2023-04-30T00:21:14;4.67;;;3.30;;
12433;SDS011;6281;49.038;8.372;2023-04-30T00:23:41;3.70;;;2.97;;
12433;SDS011;6281;49.038;8.372;2023-04-30T00:26:08;4.70;;;3.23;;
12433;SDS011;6281;49.038;8.372;2023-04-30T00:28:35;4.33;;;3.33;;
12433;SDS011;6281;49.038;8.372;2023-04-30T00:31:03;3.53;;;3.23;;
12433;SDS011;6281;49.038;8.372;2023-04-30T00:33:33;4.43;;;3.20;;
12433;SDS011;6281;49.038;8.372;2023-04-30T00:36:00;4.30;;;3.13;;
12433;SDS011;6281;49.038;8.372;2023-04-30T00:38:26;6.87;;;3.67;;
12433;SDS011;6281;49.038;8.372;2023-04-30T00:40:53;6.00;;;3.83;;
12433;SDS011;6281;49.038;8.372;2023-04-30T00:43:20;5.97;;;3.73;;
12433;SDS011;6281;49.038;8.372;2023-04-30T00:45:47;5.90;;;4.10;;
12433;SDS011;6281;49.038;8.372;2023-04-30T00:48:15;6.37;;;3.77;;
12433;SDS011;6281;49.038;8.372;2023-04-30T00:50:43;6.23;;;4.10;;
12433;SDS011;6281;49.038;8.372;2023-04-30T00:53:10;5.80;;;3.50;;
12433;SDS011;6281;49.038;8.372;2023-04-30T00:55:37;5.50;;;3.80;;
12433;SDS011;6281;49.038;8.372;2023-04-30T00:58:06;6.60;;;3.40;;
12433;SDS011;6281;49.038;8.372;2023-04-30T01:00:33;5.27;;;4.00;;
12433;SDS011;6281;49.038;8.372;2023-04-30T01:03:00;4.70;;;3.50;;
12433;SDS011;6281;49.038;8.372;2023-04-30T01:05:29;4.50;;;3.73;;
12433;SDS011;6281;49.038;8.372;2023-04-30T01:07:55;4.73;;;3.80;;
12433;SDS011;6281;49.038;8.372;2023-04-30T01:10:24;5.63;;;3.97;;
12433;SDS011;6281;49.038;8.372;2023-04-30T01:12:58;7.07;;;4.50;;
12433;SDS011;6281;49.038;8.372;2023-04-30T01:15:31;6.63;;;4.00;;
12433;SDS011;6281;49.038;8.372;2023-04-30T01:18:04;6.10;;;4.10;;
12433;SDS011;6281;49.038;8.372;2023-04-30T01:20:38;6.27;;;4.30;;
12433;SDS011;6281;49.038;8.372;2023-04-30T01:23:16;6.80;;;4.07;;
12433;SDS011;6281;49.038;8.372;2023-04-30T01:25:52;6.60;;;3.93;;
12433;SDS011;6281;49.038;8.372;2023-04-30T01:28:34;6.53;;;4.17;;
12433;SDS011;6281;49.038;8.372;2023-04-30T01:31:07;6.37;;;4.00;;
12433;SDS011;6281;49.038;8.372;2023-04-30T01:33:37;6.10;;;4.23;;
12433;SDS011;6281;49.038;8.372;2023-04-30T01:36:08;5.87;;;3.97;;
12433;SDS011;6281;49.038;8.372;2023-04-30T01:41:49;6.03;;;4.47;;
12433;SDS011;6281;49.038;8.372;2023-04-30T01:44:27;6.37;;;4.10;;
12433;SDS011;6281;49.038;8.372;2023-04-30T01:47:06;6.73;;;4.70;;
12433;SDS011;6281;49.038;8.372;2023-04-30T01:49:41;6.83;;;4.13;;
12433;SDS011;6281;49.038;8.372;2023-04-30T01:52:16;6.77;;;4.60;;
12433;SDS011;6281;49.038;8.372;2023-04-30T01:54:48;7.77;;;4.50;;
12433;SDS011;6281;49.038;8.372;2023-04-30T01:57:20;5.57;;;3.90;;
12433;SDS011;6281;49.038;8.372;2023-04-30T01:59:54;5.50;;;4.10;;
12433;SDS011;6281;49.038;8.372;2023-04-30T02:02:21;4.90;;;3.97;;
12433;SDS011;6281;49.038;8.372;2023-04-30T02:04:48;7.90;;;4.10;;
12433;SDS011;6281;49.038;8.372;2023-04-30T02:07:16;6.07;;;4.13;;
12433;SDS011;6281;49.038;8.372;2023-04-30T02:09:54;5.13;;;3.63;;
12433;SDS011;6281;49.038;8.372;2023-04-30T02:12:21;5.50;;;3.83;;
12433;SDS011;6281;49.038;8.372;2023-04-30T02:14:48;6.13;;;4.10;;
12433;SDS011;6281;49.038;8.372;2023-04-30T02:17:16;4.93;;;3.63;;
12433;SDS011;6281;49.038;8.372;2023-04-30T02:19:43;4.80;;;3.73;;
12433;SDS011;6281;49.038;8.372;2023-04-30T02:22:10;5.37;;;4.03;;
12433;SDS011;6281;49.038;8.372;2023-04-30T02:24:37;6.40;;;3.87;;
12433;SDS011;6281;49.038;8.372;2023-04-30T02:27:04;6.70;;;4.53;;
12433;SDS011;6281;49.038;8.372;2023-04-30T02:29:31;6.20;;;4.03;;
12433;SDS011;6281;49.038;8.372;2023-04-30T02:31:58;6.60;;;4.07;;
12433;SDS011;6281;49.038;8.372;2023-04-30T02:34:26;5.60;;;3.93;;
12433;SDS011;6281;49.038;8.372;2023-04-30T02:36:53;5.00;;;3.63;;
12433;SDS011;6281;49.038;8.372;2023-04-30T02:39:20;4.90;;;3.57;;
12433;SDS011;6281;49.038;8.372;2023-04-30T02:41:47;6.27;;;4.47;;
12433;SDS011;6281;49.038;8.372;2023-04-30T02:44:14;6.40;;;4.20;;
12433;SDS011;6281;49.038;8.372;2023-04-30T02:46:40;6.53;;;4.13;;
12433;SDS011;6281;49.038;8.372;2023-04-30T02:49:07;7.63;;;4.50;;
12433;SDS011;6281;49.038;8.372;2023-04-30T02:51:35;6.00;;;4.30;;
12433;SDS011;6281;49.038;8.372;2023-04-30T02:54:02;6.83;;;4.40;;
12433;SDS011;6281;49.038;8.372;2023-04-30T02:56:29;4.93;;;3.77;;
12433;SDS011;6281;49.038;8.372;2023-04-30T02:58:56;9.00;;;4.70;;
12433;SDS011;6281;49.038;8.372;2023-04-30T03:01:23;4.80;;;3.97;;
12433;SDS011;6281;49.038;8.372;2023-04-30T03:03:49;5.83;;;3.90;;
12433;SDS011;6281;49.038;8.372;2023-04-30T03:06:16;5.37;;;4.07;;
12433;SDS011;6281;49.038;8.372;2023-04-30T03:08:44;6.03;;;4.33;;
12433;SDS011;6281;49.038;8.372;2023-04-30T03:11:11;5.97;;;4.30;;
12433;SDS011;6281;49.038;8.372;2023-04-30T03:13:38;4.27;;;3.60;;
12433;SDS011;6281;49.038;8.372;2023-04-30T03:16:05;6.57;;;4.40;;
12433;SDS011;6281;49.038;8.372;2023-04-30T03:18:32;7.27;;;5.10;;
12433;SDS011;6281;49.038;8.372;2023-04-30T03:20:59;6.47;;;4.70;;
12433;SDS011;6281;49.038;8.372;2023-04-30T03:23:26;6.20;;;4.20;;
12433;SDS011;6281;49.038;8.372;2023-04-30T03:25:55;6.03;;;4.73;;
12433;SDS011;6281;49.038;8.372;2023-04-30T03:28:21;6.17;;;4.37;;
12433;SDS011;6281;49.038;8.372;2023-04-30T03:30:49;5.53;;;4.30;;
12433;SDS011;6281;49.038;8.372;2023-04-30T03:33:16;6.67;;;4.17;;
12433;SDS011;6281;49.038;8.372;2023-04-30T03:35:42;6.57;;;5.10;;
12433;SDS011;6281;49.038;8.372;2023-04-30T03:38:09;6.77;;;4.00;;
12433;SDS011;6281;49.038;8.372;2023-04-30T03:40:36;5.13;;;4.20;;
12433;SDS011;6281;49.038;8.372;2023-04-30T03:43:05;9.20;;;4.90;;
12433;SDS011;6281;49.038;8.372;2023-04-30T03:45:32;7.03;;;4.63;;
12433;SDS011;6281;49.038;8.372;2023-04-30T03:47:58;7.00;;;4.30;;
12433;SDS011;6281;49.038;8.372;2023-04-30T03:50:25;5.73;;;4.10;;
12433;SDS011;6281;49.038;8.372;2023-04-30T03:52:52;7.80;;;4.57;;
12433;SDS011;6281;49.038;8.372;2023-04-30T03:55:19;5.23;;;4.27;;
12433;SDS011;6281;49.038;8.372;2023-04-30T03:57:46;6.03;;;4.03;;
12433;SDS011;6281;49.038;8.372;2023-04-30T04:00:14;6.37;;;4.23;;
12433;SDS011;6281;49.038;8.372;2023-04-30T04:02:41;4.97;;;3.70;;
12433;SDS011;6281;49.038;8.372;2023-04-30T04:05:08;5.97;;;4.10;;
12433;SDS011;6281;49.038;8.372;2023-04-30T04:07:35;5.50;;;3.70;;
12433;SDS011;6281;49.038;8.372;2023-04-30T04:10:02;5.50;;;3.93;;
12433;SDS011;6281;49.038;8.372;2023-04-30T04:12:29;5.03;;;3.80;;
12433;SDS011;6281;49.038;8.372;2023-04-30T04:14:56;5.63;;;3.90;;
12433;SDS011;6281;49.038;8.372;2023-04-30T04:17:25;5.47;;;3.90;;
12433;SDS011;6281;49.038;8.372;2023-04-30T04:19:52;4.53;;;3.27;;
12433;SDS011;6281;49.038;8.372;2023-04-30T04:22:19;5.57;;;4.00;;
12433;SDS011;6281;49.038;8.372;2023-04-30T04:24:45;4.10;;;3.40;;
12433;SDS011;6281;49.038;8.372;2023-04-30T04:27:13;4.30;;;3.23;;
12433;SDS011;6281;49.038;8.372;2023-04-30T04:29:40;4.37;;;3.00;;
12433;SDS011;6281;49.038;8.372;2023-04-30T04:32:07;4.87;;;3.60;;
12433;SDS011;6281;49.038;8.372;2023-04-30T04:34:35;5.40;;;3.77;;
12433;SDS011;6281;49.038;8.372;2023-04-30T04:37:03;5.60;;;3.60;;
12433;SDS011;6281;49.038;8.372;2023-04-30T04:39:30;3.33;;;2.90;;
12433;SDS011;6281;49.038;8.372;2023-04-30T04:41:57;4.30;;;3.40;;
12433;SDS011;6281;49.038;8.372;2023-04-30T04:44:24;4.13;;;3.23;;
12433;SDS011;6281;49.038;8.372;2023-04-30T04:46:51;5.23;;;3.53;;
12433;SDS011;6281;49.038;8.372;2023-04-30T04:49:18;4.87;;;3.40;;
12433;SDS011;6281;49.038;8.372;2023-04-30T04:51:46;3.80;;;2.87;;
12433;SDS011;6281;49.038;8.372;2023-04-30T04:54:13;4.70;;;3.67;;
12433;SDS011;6281;49.038;8.372;2023-04-30T04:56:40;4.47;;;3.77;;
12433;SDS011;6281;49.038;8.372;2023-04-30T04:59:06;4.50;;;3.03;;
12433;SDS011;6281;49.038;8.372;2023-04-30T05:01:33;4.83;;;3.60;;
12433;SDS011;6281;49.038;8.372;2023-04-30T05:04:00;5.73;;;3.67;;
12433;SDS011;6281;49.038;8.372;2023-04-30T05:06:27;5.57;;;3.27;;
12433;SDS011;6281;49.038;8.372;2023-04-30T05:08:55;4.47;;;3.33;;
12433;SDS011;6281;49.038;8.372;2023-04-30T05:11:22;4.90;;;3.33;;
12433;SDS011;6281;49.038;8.372;2023-04-30T05:13:48;3.97;;;3.40;;
12433;SDS011;6281;49.038;8.372;2023-04-30T05:16:15;4.80;;;3.50;;
12433;SDS011;6281;49.038;8.372;2023-04-30T05:18:42;4.67;;;3.37;;
12433;SDS011;6281;49.038;8.372;2023-04-30T05:21:09;4.23;;;3.00;;
12433;SDS011;6281;49.038;8.372;2023-04-30T05:23:35;4.40;;;3.57;;
12433;SDS011;6281;49.038;8.372;2023-04-30T05:26:03;4.63;;;3.30;;
12433;SDS011;6281;49.038;8.372;2023-04-30T05:28:30;4.27;;;3.40;;
12433;SDS011;6281;49.038;8.372;2023-04-30T05:30:57;4.70;;;3.67;;
12433;SDS011;6281;49.038;8.372;2023-04-30T05:33:24;4.07;;;3.67;;
12433;SDS011;6281;49.038;8.372;2023-04-30T05:35:51;4.20;;;3.20;;
12433;SDS011;6281;49.038;8.372;2023-04-30T05:38:18;3.97;;;3.57;;
12433;SDS011;6281;49.038;8.372;2023-04-30T05:40:45;5.37;;;3.57;;
12433;SDS011;6281;49.038;8.372;2023-04-30T05:43:13;5.37;;;3.67;;
12433;SDS011;6281;49.038;8.372;2023-04-30T05:45:39;5.70;;;3.63;;
12433;SDS011;6281;49.038;8.372;2023-04-30T05:48:06;4.80;;;4.10;;
12433;SDS011;6281;49.038;8.372;2023-04-30T05:50:33;6.23;;;4.27;;
12433;SDS011;6281;49.038;8.372;2023-04-30T05:53:00;6.37;;;4.27;;
12433;SDS011;6281;49.038;8.372;2023-04-30T05:55:27;6.87;;;4.13;;
12433;SDS011;6281;49.038;8.372;2023-04-30T05:57:55;5.37;;;3.60;;
12433;SDS011;6281;49.038;8.372;2023-04-30T06:00:23;5.10;;;4.13;;
12433;SDS011;6281;49.038;8.372;2023-04-30T06:02:50;4.37;;;3.50;;
12433;SDS011;6281;49.038;8.372;2023-04-30T06:05:17;5.87;;;4.30;;
12433;SDS011;6281;49.038;8.372;2023-04-30T06:07:44;5.80;;;4.10;;
12433;SDS011;6281;49.038;8.372;2023-04-30T06:10:11;5.87;;;3.93;;
12433;SDS011;6281;49.038;8.372;2023-04-30T06:12:38;6.50;;;4.30;;
12433;SDS011;6281;49.038;8.372;2023-04-30T06:15:05;5.23;;;4.40;;
12433;SDS011;6281;49.038;8.372;2023-04-30T06:17:34;8.47;;;4.00;;
12433;SDS011;6281;49.038;8.372;2023-04-30T06:20:01;5.70;;;4.00;;
12433;SDS011;6281;49.038;8.372;2023-04-30T06:22:31;5.80;;;4.40;;
12433;SDS011;6281;49.038;8.372;2023-04-30T06:24:58;4.97;;;4.00;;
12433;SDS011;6281;49.038;8.372;2023-04-30T06:27:25;6.83;;;4.53;;
12433;SDS011;6281;49.038;8.372;2023-04-30T06:29:52;6.47;;;4.60;;
12433;SDS011;6281;49.038;8.372;2023-04-30T06:32:19;5.43;;;3.83;;
12433;SDS011;6281;49.038;8.372;2023-04-30T06:34:48;6.77;;;5.17;;
12433;SDS011;6281;49.038;8.372;2023-04-30T06:37:14;5.20;;;4.27;;
12433;SDS011;6281;49.038;8.372;2023-04-30T06:39:41;6.30;;;4.60;;
12433;SDS011;6281;49.038;8.372;2023-04-30T06:42:08;7.17;;;4.80;;
12433;SDS011;6281;49.038;8.372;2023-04-30T06:44:35;5.93;;;4.70;;
12433;SDS011;6281;49.038;8.372;2023-04-30T06:47:01;6.80;;;4.30;;
12433;SDS011;6281;49.038;8.372;2023-04-30T06:49:28;7.00;;;4.57;;
12433;SDS011;6281;49.038;8.372;2023-04-30T06:51:57;5.60;;;4.57;;
12433;SDS011;6281;49.038;8.372;2023-04-30T06:54:23;7.70;;;4.40;;
12433;SDS011;6281;49.038;8.372;2023-04-30T06:56:51;6.03;;;4.47;;
12433;SDS011;6281;49.038;8.372;2023-04-30T06:59:18;6.00;;;4.60;;
12433;SDS011;6281;49.038;8.372;2023-04-30T07:01:45;7.43;;;4.47;;
12433;SDS011;6281;49.038;8.372;2023-04-30T07:04:12;7.03;;;5.07;;
12433;SDS011;6281;49.038;8.372;2023-04-30T07:06:39;7.33;;;4.40;;
12433;SDS011;6281;49.038;8.372;2023-04-30T07:09:07;6.10;;;4.60;;
12433;SDS011;6281;49.038;8.372;2023-04-30T07:11:35;5.87;;;4.73;;
12433;SDS011;6281;49.038;8.372;2023-04-30T07:14:02;7.00;;;4.80;;
12433;SDS011;6281;49.038;8.372;2023-04-30T07:16:29;7.47;;;4.47;;
12433;SDS011;6281;49.038;8.372;2023-04-30T07:18:57;6.40;;;5.07;;
12433;SDS011;6281;49.038;8.372;2023-04-30T07:21:25;10.30;;;5.37;;
12433;SDS011;6281;49.038;8.372;2023-04-30T07:23:51;5.70;;;4.60;;
12433;SDS011;6281;49.038;8.372;2023-04-30T07:26:20;7.87;;;4.57;;
12433;SDS011;6281;49.038;8.372;2023-04-30T07:28:49;6.70;;;5.10;;
12433;SDS011;6281;49.038;8.372;2023-04-30T07:31:15;7.50;;;5.00;;
12433;SDS011;6281;49.038;8.372;2023-04-30T07:33:43;7.40;;;5.13;;
12433;SDS011;6281;49.038;8.372;2023-04-30T07:36:10;5.17;;;4.23;;
12433;SDS011;6281;49.038;8.372;2023-04-30T07:38:37;6.73;;;5.03;;
12433;SDS011;6281;49.038;8.372;2023-04-30T07:41:03;7.60;;;5.40;;
12433;SDS011;6281;49.038;8.372;2023-04-30T07:43:32;6.80;;;4.93;;
12433;SDS011;6281;49.038;8.372;2023-04-30T07:45:58;5.30;;;4.33;;
12433;SDS011;6281;49.038;8.372;2023-04-30T07:48:25;6.93;;;5.07;;
12433;SDS011;6281;49.038;8.372;2023-04-30T07:50:52;7.40;;;4.80;;
12433;SDS011;6281;49.038;8.372;2023-04-30T07:53:19;6.07;;;4.80;;
12433;SDS011;6281;49.038;8.372;2023-04-30T07:55:46;7.20;;;4.37;;
12433;SDS011;6281;49.038;8.372;2023-04-30T07:58:12;7.47;;;4.80;;
12433;SDS011;6281;49.038;8.372;2023-04-30T08:00:40;5.20;;;3.93;;
12433;SDS011;6281;49.038;8.372;2023-04-30T08:03:07;6.53;;;4.87;;
12433;SDS011;6281;49.038;8.372;2023-04-30T08:05:34;5.37;;;4.40;;
12433;SDS011;6281;49.038;8.372;2023-04-30T08:08:01;5.60;;;4.17;;
12433;SDS011;6281;49.038;8.372;2023-04-30T08:10:27;6.00;;;3.97;;
12433;SDS011;6281;49.038;8.372;2023-04-30T08:12:54;6.20;;;4.37;;
12433;SDS011;6281;49.038;8.372;2023-04-30T08:15:21;4.73;;;3.40;;
12433;SDS011;6281;49.038;8.372;2023-04-30T08:17:49;5.13;;;3.93;;
12433;SDS011;6281;49.038;8.372;2023-04-30T08:20:17;6.50;;;4.30;;
12433;SDS011;6281;49.038;8.372;2023-04-30T08:22:44;6.43;;;4.10;;
12433;SDS011;6281;49.038;8.372;2023-04-30T08:25:11;5.60;;;4.17;;
12433;SDS011;6281;49.038;8.372;2023-04-30T08:27:38;5.73;;;4.13;;
12433;SDS011;6281;49.038;8.372;2023-04-30T08:30:05;5.53;;;4.33;;
12433;SDS011;6281;49.038;8.372;2023-04-30T08:32:39;5.40;;;4.23;;
12433;SDS011;6281;49.038;8.372;2023-04-30T08:35:10;4.90;;;4.00;;
12433;SDS011;6281;49.038;8.372;2023-04-30T08:37:36;5.70;;;3.53;;
12433;SDS011;6281;49.038;8.372;2023-04-30T08:40:06;5.70;;;3.63;;
12433;SDS011;6281;49.038;8.372;2023-04-30T08:42:36;3.87;;;3.30;;
12433;SDS011;6281;49.038;8.372;2023-04-30T08:45:07;6.40;;;3.70;;
12433;SDS011;6281;49.038;8.372;2023-04-30T08:47:36;4.80;;;3.27;;
12433;SDS011;6281;49.038;8.372;2023-04-30T08:50:04;4.13;;;2.97;;
12433;SDS011;6281;49.038;8.372;2023-04-30T08:52:32;5.57;;;3.67;;
12433;SDS011;6281;49.038;8.372;2023-04-30T08:55:00;5.97;;;2.73;;
12433;SDS011;6281;49.038;8.372;2023-04-30T08:57:29;4.33;;;3.30;;
12433;SDS011;6281;49.038;8.372;2023-04-30T08:59:56;4.57;;;3.17;;
12433;SDS011;6281;49.038;8.372;2023-04-30T09:02:23;3.20;;;2.63;;
12433;SDS011;6281;49.038;8.372;2023-04-30T09:04:50;3.83;;;3.33;;
12433;SDS011;6281;49.038;8.372;2023-04-30T09:07:17;3.90;;;3.03;;
12433;SDS011;6281;49.038;8.372;2023-04-30T09:09:47;4.20;;;2.93;;
12433;SDS011;6281;49.038;8.372;2023-04-30T09:12:18;3.50;;;2.93;;
12433;SDS011;6281;49.038;8.372;2023-04-30T09:14:59;2.90;;;2.60;;
12433;SDS011;6281;49.038;8.372;2023-04-30T09:17:28;4.77;;;3.20;;
12433;SDS011;6281;49.038;8.372;2023-04-30T09:19:58;4.70;;;3.43;;
12433;SDS011;6281;49.038;8.372;2023-04-30T09:22:32;3.43;;;2.93;;
12433;SDS011;6281;49.038;8.372;2023-04-30T09:25:01;3.73;;;2.47;;
12433;SDS011;6281;49.038;8.372;2023-04-30T09:27:28;3.13;;;2.33;;
12433;SDS011;6281;49.038;8.372;2023-04-30T09:29:55;3.10;;;2.53;;
12433;SDS011;6281;49.038;8.372;2023-04-30T09:32:22;4.30;;;2.40;;
12433;SDS011;6281;49.038;8.372;2023-04-30T09:34:49;4.50;;;3.23;;
12433;SDS011;6281;49.038;8.372;2023-04-30T09:37:16;3.23;;;2.80;;
12433;SDS011;6281;49.038;8.372;2023-04-30T09:39:46;5.07;;;3.03;;
12433;SDS011;6281;49.038;8.372;2023-04-30T09:42:16;3.40;;;2.97;;
12433;SDS011;6281;49.038;8.372;2023-04-30T09:44:43;4.67;;;2.93;;
12433;SDS011;6281;49.038;8.372;2023-04-30T09:47:11;4.40;;;3.10;;
12433;SDS011;6281;49.038;8.372;2023-04-30T09:49:39;4.40;;;2.93;;
12433;SDS011;6281;49.038;8.372;2023-04-30T09:52:07;3.77;;;2.80;;
12433;SDS011;6281;49.038;8.372;2023-04-30T09:54:35;3.67;;;2.10;;
12433;SDS011;6281;49.038;8.372;2023-04-30T09:57:02;3.23;;;2.30;;
12433;SDS011;6281;49.038;8.372;2023-04-30T09:59:31;2.30;;;2.10;;
12433;SDS011;6281;49.038;8.372;2023-04-30T10:02:01;3.50;;;2.60;;
12433;SDS011;6281;49.038;8.372;2023-04-30T10:04:29;3.10;;;2.30;;
12433;SDS011;6281;49.038;8.372;2023-04-30T10:06:59;3.37;;;2.70;;
12433;SDS011;6281;49.038;8.372;2023-04-30T10:09:32;3.20;;;2.37;;
12433;SDS011;6281;49.038;8.372;2023-04-30T10:12:04;3.60;;;2.33;;
12433;SDS011;6281;49.038;8.372;2023-04-30T10:14:37;3.70;;;2.60;;
12433;SDS011;6281;49.038;8.372;2023-04-30T10:17:06;3.13;;;2.13;;
12433;SDS011;6281;49.038;8.372;2023-04-30T10:19:38;2.67;;;1.87;;
12433;SDS011;6281;49.038;8.372;2023-04-30T10:22:07;3.90;;;2.37;;
12433;SDS011;6281;49.038;8.372;2023-04-30T10:24:35;3.93;;;2.70;;
12433;SDS011;6281;49.038;8.372;2023-04-30T10:27:03;3.47;;;2.50;;
12433;SDS011;6281;49.038;8.372;2023-04-30T10:29:30;2.37;;;2.17;;
12433;SDS011;6281;49.038;8.372;2023-04-30T10:31:59;4.60;;;3.40;;
12433;SDS011;6281;49.038;8.372;2023-04-30T10:34:29;3.03;;;2.63;;
12433;SDS011;6281;49.038;8.372;2023-04-30T10:37:06;4.27;;;2.50;;
12433;SDS011;6281;49.038;8.372;2023-04-30T10:39:38;2.97;;;2.40;;
12433;SDS011;6281;49.038;8.372;2023-04-30T10:42:05;1.97;;;1.83;;
12433;SDS011;6281;49.038;8.372;2023-04-30T10:44:35;2.00;;;1.80;;
12433;SDS011;6281;49.038;8.372;2023-04-30T10:47:04;2.47;;;1.83;;
12433;SDS011;6281;49.038;8.372;2023-04-30T10:49:32;2.37;;;2.17;;
12433;SDS011;6281;49.038;8.372;2023-04-30T10:51:59;3.07;;;2.10;;
12433;SDS011;6281;49.038;8.372;2023-04-30T10:54:29;1.83;;;1.70;;
12433;SDS011;6281;49.038;8.372;2023-04-30T10:57:09;3.40;;;2.33;;
12433;SDS011;6281;49.038;8.372;2023-04-30T10:59:40;2.67;;;2.10;;
12433;SDS011;6281;49.038;8.372;2023-04-30T11:02:10;2.40;;;2.20;;
12433;SDS011;6281;49.038;8.372;2023-04-30T11:07:35;2.53;;;2.00;;
12433;SDS011;6281;49.038;8.372;2023-04-30T11:10:02;2.80;;;2.23;;
12433;SDS011;6281;49.038;8.372;2023-04-30T11:12:33;2.40;;;2.13;;
12433;SDS011;6281;49.038;8.372;2023-04-30T11:15:03;3.30;;;1.90;;
12433;SDS011;6281;49.038;8.372;2023-04-30T11:17:33;2.23;;;1.97;;
12433;SDS011;6281;49.038;8.372;2023-04-30T11:20:00;2.50;;;2.17;;
12433;SDS011;6281;49.038;8.372;2023-04-30T11:22:27;2.60;;;2.07;;
12433;SDS011;6281;49.038;8.372;2023-04-30T11:25:01;2.53;;;1.80;;
12433;SDS011;6281;49.038;8.372;2023-04-30T11:27:30;2.40;;;1.60;;
12433;SDS011;6281;49.038;8.372;2023-04-30T11:29:59;4.47;;;1.80;;
12433;SDS011;6281;49.038;8.372;2023-04-30T11:32:30;2.87;;;1.97;;
12433;SDS011;6281;49.038;8.372;2023-04-30T11:35:00;2.07;;;1.80;;
12433;SDS011;6281;49.038;8.372;2023-04-30T11:37:29;2.73;;;1.87;;
12433;SDS011;6281;49.038;8.372;2023-04-30T11:39:59;2.57;;;1.90;;
12433;SDS011;6281;49.038;8.372;2023-04-30T11:42:26;1.80;;;1.70;;
12433;SDS011;6281;49.038;8.372;2023-04-30T11:45:01;1.93;;;1.73;;
12433;SDS011;6281;49.038;8.372;2023-04-30T11:47:38;3.27;;;1.87;;
12433;SDS011;6281;49.038;8.372;2023-04-30T11:50:06;3.17;;;1.87;;
12433;SDS011;6281;49.038;8.372;2023-04-30T11:52:33;2.43;;;2.10;;
12433;SDS011;6281;49.038;8.372;2023-04-30T11:55:03;4.60;;;1.60;;
12433;SDS011;6281;49.038;8.372;2023-04-30T11:57:33;2.10;;;1.50;;
12433;SDS011;6281;49.038;8.372;2023-04-30T12:00:09;1.70;;;1.60;;
12433;SDS011;6281;49.038;8.372;2023-04-30T12:02:38;2.57;;;2.13;;
12433;SDS011;6281;49.038;8.372;2023-04-30T12:05:11;2.10;;;1.77;;
12433;SDS011;6281;49.038;8.372;2023-04-30T12:07:40;2.20;;;1.93;;
12433;SDS011;6281;49.038;8.372;2023-04-30T12:10:11;2.73;;;1.87;;
12433;SDS011;6281;49.038;8.372;2023-04-30T12:12:37;2.07;;;1.87;;
12433;SDS011;6281;49.038;8.372;2023-04-30T12:15:11;2.43;;;1.73;;
12433;SDS011;6281;49.038;8.372;2023-04-30T12:17:41;2.10;;;1.87;;
12433;SDS011;6281;49.038;8.372;2023-04-30T12:20:09;3.13;;;1.83;;
12433;SDS011;6281;49.038;8.372;2023-04-30T12:22:37;1.97;;;1.60;;
12433;SDS011;6281;49.038;8.372;2023-04-30T12:25:05;3.03;;;1.50;;
12433;SDS011;6281;49.038;8.372;2023-04-30T12:27:34;2.53;;;1.60;;
12433;SDS011;6281;49.038;8.372;2023-04-30T12:30:02;1.83;;;1.70;;
12433;SDS011;6281;49.038;8.372;2023-04-30T12:32:35;2.20;;;2.00;;
12433;SDS011;6281;49.038;8.372;2023-04-30T12:35:05;2.40;;;1.70;;
12433;SDS011;6281;49.038;8.372;2023-04-30T12:37:32;1.60;;;1.50;;
12433;SDS011;6281;49.038;8.372;2023-04-30T12:39:59;2.53;;;2.13;;
12433;SDS011;6281;49.038;8.372;2023-04-30T12:42:30;2.03;;;1.80;;
12433;SDS011;6281;49.038;8.372;2023-04-30T12:44:58;1.70;;;1.60;;
12433;SDS011;6281;49.038;8.372;2023-04-30T12:47:25;2.70;;;2.00;;
12433;SDS011;6281;49.038;8.372;2023-04-30T12:49:52;3.00;;;1.77;;
12433;SDS011;6281;49.038;8.372;2023-04-30T12:52:22;2.20;;;1.80;;
12433;SDS011;6281;49.038;8.372;2023-04-30T12:54:50;2.67;;;2.00;;
12433;SDS011;6281;49.038;8.372;2023-04-30T12:57:17;3.10;;;1.80;;
12433;SDS011;6281;49.038;8.372;2023-04-30T12:59:55;2.23;;;1.77;;
12433;SDS011;6281;49.038;8.372;2023-04-30T13:02:23;2.73;;;2.00;;
12433;SDS011;6281;49.038;8.372;2023-04-30T13:04:52;1.80;;;1.53;;
12433;SDS011;6281;49.038;8.372;2023-04-30T13:07:20;2.77;;;2.27;;
12433;SDS011;6281;49.038;8.372;2023-04-30T13:09:47;2.87;;;2.13;;
12433;SDS011;6281;49.038;8.372;2023-04-30T13:12:14;2.20;;;1.53;;
12433;SDS011;6281;49.038;8.372;2023-04-30T13:14:41;5.17;;;2.20;;
12433;SDS011;6281;49.038;8.372;2023-04-30T13:17:07;2.67;;;1.97;;
12433;SDS011;6281;49.038;8.372;2023-04-30T13:19:36;2.90;;;1.93;;
12433;SDS011;6281;49.038;8.372;2023-04-30T13:22:03;3.00;;;1.83;;
12433;SDS011;6281;49.038;8.372;2023-04-30T13:24:31;1.97;;;1.80;;
12433;SDS011;6281;49.038;8.372;2023-04-30T13:26:58;2.17;;;1.97;;
12433;SDS011;6281;49.038;8.372;2023-04-30T13:29:24;2.03;;;1.80;;
12433;SDS011;6281;49.038;8.372;2023-04-30T13:31:51;3.13;;;1.90;;
12433;SDS011;6281;49.038;8.372;2023-04-30T13:34:18;4.83;;;2.23;;
12433;SDS011;6281;49.038;8.372;2023-04-30T13:36:45;1.97;;;1.77;;
12433;SDS011;6281;49.038;8.372;2023-04-30T13:39:12;2.13;;;1.87;;
12433;SDS011;6281;49.038;8.372;2023-04-30T13:41:40;2.10;;;1.80;;
12433;SDS011;6281;49.038;8.372;2023-04-30T13:44:06;1.60;;;1.50;;
12433;SDS011;6281;49.038;8.372;2023-04-30T13:46:34;3.13;;;1.90;;
12433;SDS011;6281;49.038;8.372;2023-04-30T13:49:00;1.70;;;1.60;;
12433;SDS011;6281;49.038;8.372;2023-04-30T13:51:27;2.97;;;1.87;;
12433;SDS011;6281;49.038;8.372;2023-04-30T13:53:54;2.00;;;1.80;;
12433;SDS011;6281;49.038;8.372;2023-04-30T13:56:22;2.83;;;2.17;;
12433;SDS011;6281;49.038;8.372;2023-04-30T13:58:50;3.03;;;1.60;;
12433;SDS011;6281;49.038;8.372;2023-04-30T14:01:17;2.00;;;1.77;;
12433;SDS011;6281;49.038;8.372;2023-04-30T14:03:44;2.30;;;2.10;;
12433;SDS011;6281;49.038;8.372;2023-04-30T14:06:12;2.63;;;1.83;;
12433;SDS011;6281;49.038;8.372;2023-04-30T14:08:38;2.03;;;1.80;;
12433;SDS011;6281;49.038;8.372;2023-04-30T14:11:05;2.17;;;1.97;;
12433;SDS011;6281;49.038;8.372;2023-04-30T14:13:32;2.83;;;1.90;;
12433;SDS011;6281;49.038;8.372;2023-04-30T14:16:00;2.57;;;2.00;;
12433;SDS011;6281;49.038;8.372;2023-04-30T14:18:27;2.47;;;2.23;;
12433;SDS011;6281;49.038;8.372;2023-04-30T14:20:54;2.80;;;1.93;;
12433;SDS011;6281;49.038;8.372;2023-04-30T14:23:21;2.83;;;2.30;;
12433;SDS011;6281;49.038;8.372;2023-04-30T14:25:48;4.20;;;2.80;;
12433;SDS011;6281;49.038;8.372;2023-04-30T14:28:15;3.00;;;2.50;;
12433;SDS011;6281;49.038;8.372;2023-04-30T14:30:42;2.50;;;1.80;;
12433;SDS011;6281;49.038;8.372;2023-04-30T14:33:10;2.50;;;2.30;;
12433;SDS011;6281;49.038;8.372;2023-04-30T14:35:38;1.60;;;1.50;;
12433;SDS011;6281;49.038;8.372;2023-04-30T14:38:05;2.80;;;1.70;;
12433;SDS011;6281;49.038;8.372;2023-04-30T14:40:32;1.73;;;1.63;;
12433;SDS011;6281;49.038;8.372;2023-04-30T14:42:59;1.63;;;1.53;;
12433;SDS011;6281;49.038;8.372;2023-04-30T14:45:26;3.40;;;1.73;;
12433;SDS011;6281;49.038;8.372;2023-04-30T14:47:53;1.80;;;1.70;;
12433;SDS011;6281;49.038;8.372;2023-04-30T14:50:21;2.10;;;1.80;;
12433;SDS011;6281;49.038;8.372;2023-04-30T14:52:48;2.03;;;1.67;;
12433;SDS011;6281;49.038;8.372;2023-04-30T14:55:16;4.43;;;2.37;;
12433;SDS011;6281;49.038;8.372;2023-04-30T14:57:44;2.50;;;2.30;;
12433;SDS011;6281;49.038;8.372;2023-04-30T15:00:11;2.63;;;2.07;;
12433;SDS011;6281;49.038;8.372;2023-04-30T15:02:40;3.63;;;2.90;;
12433;SDS011;6281;49.038;8.372;2023-04-30T15:05:07;5.00;;;3.97;;
12433;SDS011;6281;49.038;8.372;2023-04-30T15:07:35;2.77;;;2.27;;
12433;SDS011;6281;49.038;8.372;2023-04-30T15:10:03;3.90;;;2.53;;
12433;SDS011;6281;49.038;8.372;2023-04-30T15:12:30;4.73;;;2.63;;